createdAt,value
2023-04-30T00:01:42.663Z,12.96
2023-04-30T00:04:11.076Z,12.94
2023-04-30T00:06:39.857Z,12.93
2023-04-30T00:09:08.160Z,12.91
2023-04-30T00:11:36.276Z,12.88
2023-04-30T00:14:04.368Z,12.84
2023-04-30T00:17:33.130Z,12.77
2023-04-30T00:22:01.096Z,12.74
2023-04-30T00:26:09.509Z,12.73
2023-04-30T00:30:37.688Z,12.69
2023-04-30T00:35:05.726Z,12.62
2023-04-30T00:39:34.693Z,12.60
2023-04-30T00:44:03.482Z,12.61
2023-04-30T00:48:31.451Z,12.57
2023-04-30T00:53:00.265Z,12.56
2023-04-30T00:57:29.076Z,12.61
2023-04-30T01:00:47.086Z,12.63
2023-04-30T01:03:15.215Z,12.61
2023-04-30T01:05:45.130Z,12.61
2023-04-30T01:08:13.285Z,12.64
2023-04-30T01:11:04.322Z,12.67
2023-04-30T01:13:40.802Z,12.68
2023-04-30T01:16:26.061Z,12.71
2023-04-30T01:19:00.739Z,12.73
2023-04-30T01:21:30.919Z,12.73
2023-04-30T01:24:08.034Z,12.74
2023-04-30T01:26:53.112Z,12.74
2023-04-30T01:29:22.527Z,12.76
2023-04-30T01:31:50.794Z,12.74
2023-04-30T01:34:18.983Z,12.73
2023-04-30T01:37:06.171Z,12.72
2023-04-30T01:40:05.377Z,12.70
2023-04-30T01:43:07.714Z,12.67
2023-04-30T01:46:14.544Z,12.61
2023-04-30T01:49:03.813Z,12.58
2023-04-30T01:51:42.540Z,12.55
2023-04-30T01:54:29.331Z,12.56
2023-04-30T01:57:07.049Z,12.57
2023-04-30T01:59:38.400Z,12.58
2023-04-30T02:02:06.970Z,12.58
2023-04-30T02:04:35.127Z,12.53
2023-04-30T02:07:04.845Z,12.47
2023-04-30T02:09:32.789Z,12.41
2023-04-30T02:12:00.805Z,12.38
2023-04-30T02:14:31.124Z,12.37
2023-04-30T02:16:59.005Z,12.34
2023-04-30T02:19:26.925Z,12.35
2023-04-30T02:21:54.887Z,12.36
2023-04-30T02:24:22.932Z,12.40
2023-04-30T02:26:51.353Z,12.36
2023-04-30T02:29:19.320Z,12.27
2023-04-30T02:31:47.248Z,12.15
2023-04-30T02:34:15.371Z,12.02
2023-04-30T02:36:43.267Z,11.93
2023-04-30T02:39:11.269Z,11.88
2023-04-30T02:41:39.226Z,11.82
2023-04-30T02:44:07.203Z,11.70
2023-04-30T02:46:35.675Z,11.60
2023-04-30T02:49:03.592Z,11.42
2023-04-30T02:51:32.748Z,11.42
2023-04-30T02:54:00.722Z,11.34
2023-04-30T02:56:28.725Z,11.25
2023-04-30T02:58:56.588Z,11.10
2023-04-30T03:01:24.639Z,10.94
2023-04-30T03:03:53.054Z,10.76
2023-04-30T03:06:21.044Z,10.61
2023-04-30T03:08:49.251Z,10.51
2023-04-30T03:11:17.287Z,10.46
2023-04-30T03:13:45.852Z,10.43
2023-04-30T03:16:13.791Z,10.41
2023-04-30T03:18:41.680Z,10.39
2023-04-30T03:21:09.792Z,10.37
2023-04-30T03:23:38.086Z,10.39
2023-04-30T03:26:06.444Z,10.39
2023-04-30T03:28:35.391Z,10.35
2023-04-30T03:31:06.304Z,10.31
2023-04-30T03:33:34.579Z,10.29
2023-04-30T03:36:02.657Z,10.30
2023-04-30T03:38:31.117Z,10.31
2023-04-30T03:40:59.185Z,10.30
2023-04-30T03:43:27.170Z,10.26
2023-04-30T03:45:55.130Z,10.23
2023-04-30T03:48:44.021Z,10.20
2023-04-30T03:51:11.957Z,10.19
2023-04-30T03:53:40.124Z,10.19
2023-04-30T03:56:08.258Z,10.20
2023-04-30T03:58:36.452Z,10.18
2023-04-30T04:01:05.058Z,10.16
2023-04-30T04:03:35.134Z,10.23
2023-04-30T04:06:03.252Z,10.25
2023-04-30T04:08:31.498Z,10.26
2023-04-30T04:10:59.775Z,10.27
2023-04-30T04:13:27.773Z,10.27
2023-04-30T04:15:55.711Z,10.30
2023-04-30T04:18:23.516Z,10.33
2023-04-30T04:20:51.530Z,10.36
2023-04-30T04:23:19.538Z,10.37
2023-04-30T04:25:49.685Z,10.38
2023-04-30T04:28:17.586Z,10.39
2023-04-30T04:30:45.858Z,10.39
2023-04-30T04:33:13.630Z,10.39
2023-04-30T04:35:41.609Z,10.38
2023-04-30T04:38:09.667Z,10.37
2023-04-30T04:40:38.383Z,10.34
2023-04-30T04:43:07.277Z,10.33
2023-04-30T04:45:35.919Z,10.36
2023-04-30T04:48:04.096Z,10.40
2023-04-30T04:50:32.127Z,10.41
2023-04-30T04:53:00.427Z,10.38
2023-04-30T04:55:28.232Z,10.38
2023-04-30T04:57:56.582Z,10.41
2023-04-30T05:00:25.881Z,10.48
2023-04-30T05:02:53.849Z,10.55
2023-04-30T05:05:21.798Z,10.59
2023-04-30T05:07:52.581Z,10.61
2023-04-30T05:10:20.990Z,10.64
2023-04-30T05:12:48.958Z,10.65
2023-04-30T05:15:17.054Z,10.67
2023-04-30T05:17:45.102Z,10.73
2023-04-30T05:20:13.510Z,10.82
2023-04-30T05:22:41.475Z,10.86
2023-04-30T05:25:09.852Z,10.92
2023-04-30T05:27:37.851Z,10.95
2023-04-30T05:30:06.926Z,10.95
2023-04-30T05:32:35.588Z,10.91
2023-04-30T05:35:04.256Z,10.82
2023-04-30T05:37:32.202Z,10.75
2023-04-30T05:40:00.171Z,10.75
2023-04-30T05:42:28.112Z,10.75
2023-04-30T05:44:56.045Z,10.72
2023-04-30T05:47:23.942Z,10.68
2023-04-30T05:49:51.746Z,10.67
2023-04-30T05:52:19.621Z,10.66
2023-04-30T05:54:50.090Z,10.69
2023-04-30T05:57:18.030Z,10.75
2023-04-30T05:59:45.957Z,10.86
2023-04-30T06:02:13.788Z,10.97
2023-04-30T06:04:42.544Z,11.06
2023-04-30T06:07:10.460Z,11.07
2023-04-30T06:09:38.403Z,11.17
2023-04-30T06:12:06.431Z,11.24
2023-04-30T06:14:35.966Z,11.31
2023-04-30T06:17:03.897Z,11.41
2023-04-30T06:19:31.883Z,11.57
2023-04-30T06:21:59.810Z,11.75
2023-04-30T06:24:27.777Z,11.95
2023-04-30T06:26:55.895Z,12.13
2023-04-30T06:29:24.496Z,12.24
2023-04-30T06:31:52.426Z,12.30
2023-04-30T06:34:21.640Z,12.35
2023-04-30T06:36:50.152Z,12.39
2023-04-30T06:39:18.183Z,12.47
2023-04-30T06:41:47.572Z,12.60
2023-04-30T06:44:16.617Z,12.68
2023-04-30T06:46:44.708Z,12.77
2023-04-30T06:49:12.878Z,12.88
2023-04-30T06:51:41.784Z,13.01
2023-04-30T06:54:09.739Z,13.13
2023-04-30T06:56:37.818Z,13.21
2023-04-30T06:59:05.765Z,13.28
2023-04-30T07:01:33.726Z,13.39
2023-04-30T07:04:02.159Z,13.48
2023-04-30T07:06:30.822Z,13.60
2023-04-30T07:08:58.743Z,13.92
2023-04-30T07:11:26.889Z,14.35
2023-04-30T07:13:54.874Z,14.84
2023-04-30T07:16:28.025Z,15.27
2023-04-30T07:18:56.106Z,15.57
2023-04-30T07:21:25.558Z,15.76
2023-04-30T07:23:53.510Z,15.86
2023-04-30T07:26:21.924Z,15.97
2023-04-30T07:28:50.251Z,16.11
2023-04-30T07:31:19.425Z,16.32
2023-04-30T07:33:47.445Z,16.56
2023-04-30T07:36:15.813Z,16.74
2023-04-30T07:38:43.876Z,16.87
2023-04-30T07:41:11.808Z,16.94
2023-04-30T07:43:40.125Z,17.04
2023-04-30T07:46:08.592Z,17.25
2023-04-30T07:48:37.807Z,17.46
2023-04-30T07:51:05.815Z,17.48
2023-04-30T07:53:33.705Z,17.52
2023-04-30T07:56:01.549Z,17.69
2023-04-30T07:58:29.378Z,17.93
2023-04-30T08:00:57.207Z,18.16
2023-04-30T08:03:25.070Z,18.46
2023-04-30T08:05:53.297Z,18.63
2023-04-30T08:08:21.272Z,18.63
2023-04-30T08:10:49.264Z,18.55
2023-04-30T08:13:17.362Z,18.47
2023-04-30T08:15:45.236Z,18.52
2023-04-30T08:18:13.081Z,18.54
2023-04-30T08:20:41.004Z,18.51
2023-04-30T08:23:08.880Z,18.60
2023-04-30T08:25:37.159Z,18.84
2023-04-30T08:28:06.436Z,19.10
2023-04-30T08:30:34.317Z,19.26
2023-04-30T08:33:02.218Z,19.36
2023-04-30T08:35:30.469Z,19.61
2023-04-30T08:37:58.465Z,19.75
2023-04-30T08:40:43.417Z,19.61
2023-04-30T08:43:16.312Z,19.38
2023-04-30T08:45:45.122Z,19.20
2023-04-30T08:48:16.706Z,19.24
2023-04-30T08:50:45.980Z,19.36
2023-04-30T08:53:17.534Z,19.55
2023-04-30T08:55:46.022Z,19.84
2023-04-30T08:58:14.185Z,20.08
2023-04-30T09:00:42.337Z,20.32
2023-04-30T09:03:10.744Z,20.48
2023-04-30T09:05:39.028Z,20.43
2023-04-30T09:08:11.256Z,20.24
2023-04-30T09:10:39.340Z,20.20
2023-04-30T09:13:12.171Z,20.19
2023-04-30T09:15:44.761Z,20.17
2023-04-30T09:18:17.581Z,20.30
2023-04-30T09:21:03.088Z,20.56
2023-04-30T09:23:31.238Z,20.79
2023-04-30T09:25:59.517Z,20.92
2023-04-30T09:28:29.090Z,21.22
2023-04-30T09:30:58.229Z,21.56
2023-04-30T09:33:26.516Z,21.60
2023-04-30T09:35:54.543Z,21.32
2023-04-30T09:38:30.858Z,20.84
2023-04-30T09:41:02.344Z,20.50
2023-04-30T09:43:31.523Z,20.27
2023-04-30T09:46:00.696Z,20.09
2023-04-30T09:48:29.109Z,20.04
2023-04-30T09:51:00.445Z,20.12
2023-04-30T09:53:29.353Z,20.22
2023-04-30T09:55:59.060Z,20.38
2023-04-30T09:58:28.632Z,20.65
2023-04-30T10:01:00.797Z,20.96
2023-04-30T10:03:31.749Z,21.13
2023-04-30T10:06:01.127Z,21.01
2023-04-30T10:08:32.338Z,20.73
2023-04-30T10:11:09.185Z,20.52
2023-04-30T10:13:53.706Z,20.58
2023-04-30T10:16:38.006Z,20.84
2023-04-30T10:19:15.592Z,21.10
2023-04-30T10:21:46.325Z,21.29
2023-04-30T10:24:18.607Z,21.40
2023-04-30T10:26:48.379Z,21.53
2023-04-30T10:29:17.761Z,21.72
2023-04-30T10:31:52.905Z,21.97
2023-04-30T10:34:42.449Z,22.16
2023-04-30T10:37:34.842Z,22.46
2023-04-30T10:40:05.401Z,22.78
2023-04-30T10:42:36.028Z,22.76
2023-04-30T10:45:04.373Z,22.44
2023-04-30T10:47:32.728Z,22.26
2023-04-30T10:50:05.130Z,22.29
2023-04-30T10:52:33.400Z,22.39
2023-04-30T10:55:05.978Z,22.42
2023-04-30T10:57:42.859Z,22.26
2023-04-30T11:00:11.092Z,22.25
2023-04-30T11:02:48.507Z,22.29
2023-04-30T11:05:20.711Z,22.40
2023-04-30T11:07:50.031Z,22.32
2023-04-30T11:10:23.203Z,22.33
2023-04-30T11:12:52.905Z,22.60
2023-04-30T11:15:25.316Z,22.85
2023-04-30T11:18:01.459Z,23.22
2023-04-30T11:20:29.561Z,23.56
2023-04-30T11:23:25.333Z,23.75
2023-04-30T11:26:20.373Z,23.62
2023-04-30T11:28:53.345Z,23.37
2023-04-30T11:31:32.930Z,23.18
2023-04-30T11:34:01.938Z,23.28
2023-04-30T11:36:31.760Z,23.30
2023-04-30T11:39:00.073Z,23.17
2023-04-30T11:41:28.187Z,23.22
2023-04-30T11:43:56.306Z,23.34
2023-04-30T11:46:24.273Z,23.48
2023-04-30T11:48:52.825Z,23.55
2023-04-30T11:51:24.200Z,23.49
2023-04-30T11:53:53.504Z,23.36
2023-04-30T11:56:25.738Z,23.19
2023-04-30T11:58:57.714Z,23.22
2023-04-30T12:01:28.695Z,23.42
2023-04-30T12:03:57.795Z,23.46
2023-04-30T12:06:29.144Z,23.26
2023-04-30T12:09:09.205Z,23.12
2023-04-30T12:11:38.700Z,23.14
2023-04-30T12:14:07.850Z,23.16
2023-04-30T12:16:50.628Z,23.12
2023-04-30T12:19:20.357Z,23.13
2023-04-30T12:21:49.822Z,23.33
2023-04-30T12:24:19.582Z,23.46
2023-04-30T12:26:48.274Z,23.52
2023-04-30T12:29:17.741Z,23.46
2023-04-30T12:31:49.462Z,23.53
2023-04-30T12:34:18.675Z,23.64
2023-04-30T12:36:46.856Z,23.74
2023-04-30T12:39:16.500Z,23.81
2023-04-30T12:41:49.902Z,23.70
2023-04-30T12:44:18.920Z,23.55
2023-04-30T12:46:49.091Z,23.37
2023-04-30T12:49:27.583Z,23.13
2023-04-30T12:52:09.814Z,22.84
2023-04-30T12:54:38.814Z,22.66
2023-04-30T12:57:09.292Z,22.64
2023-04-30T12:59:58.510Z,22.64
2023-04-30T13:02:29.024Z,22.73
2023-04-30T13:04:57.191Z,22.75
2023-04-30T13:07:26.153Z,22.82
2023-04-30T13:09:56.111Z,22.77
2023-04-30T13:12:24.616Z,22.73
2023-04-30T13:14:52.733Z,22.73
2023-04-30T13:17:22.770Z,22.69
2023-04-30T13:19:54.914Z,22.56
2023-04-30T13:22:29.803Z,22.42
2023-04-30T13:24:58.461Z,22.38
2023-04-30T13:27:27.222Z,22.41
2023-04-30T13:29:55.602Z,22.54
2023-04-30T13:32:24.163Z,22.64
2023-04-30T13:34:55.273Z,22.59
2023-04-30T13:37:23.423Z,22.53
2023-04-30T13:39:51.609Z,22.47
2023-04-30T13:42:19.804Z,22.45
2023-04-30T13:44:50.036Z,22.43
2023-04-30T13:47:18.126Z,22.47
2023-04-30T13:49:46.123Z,22.51
2023-04-30T13:52:13.970Z,22.45
2023-04-30T13:54:42.190Z,22.34
2023-04-30T13:57:10.329Z,22.21
2023-04-30T13:59:38.768Z,22.09
2023-04-30T14:02:07.363Z,21.95
2023-04-30T14:04:35.377Z,21.80
2023-04-30T14:07:04.173Z,21.69
2023-04-30T14:09:32.264Z,21.64
2023-04-30T14:12:00.265Z,21.58
2023-04-30T14:14:29.335Z,21.57
2023-04-30T14:16:57.525Z,21.60
2023-04-30T14:19:25.595Z,21.55
2023-04-30T14:21:53.603Z,21.47
2023-04-30T14:24:21.636Z,21.32
2023-04-30T14:26:49.654Z,21.08
2023-04-30T14:29:21.591Z,20.86
2023-04-30T14:31:49.795Z,20.81
2023-04-30T14:34:17.677Z,20.87
2023-04-30T14:36:45.644Z,20.95
2023-04-30T14:39:14.124Z,20.97
2023-04-30T14:41:42.023Z,21.04
2023-04-30T14:44:10.705Z,21.04
2023-04-30T14:46:38.839Z,20.89
2023-04-30T14:49:07.005Z,20.76
2023-04-30T14:51:35.000Z,20.60
2023-04-30T14:54:03.232Z,20.40
2023-04-30T14:56:31.219Z,20.18
2023-04-30T14:58:59.254Z,20.03
2023-04-30T15:01:28.516Z,19.99
2023-04-30T15:03:56.883Z,20.04
2023-04-30T15:06:24.958Z,20.06
2023-04-30T15:08:53.154Z,20.03
2023-04-30T15:11:21.180Z,19.95
2023-04-30T15:13:49.252Z,19.81
2023-04-30T15:16:17.319Z,19.68
2023-04-30T15:18:45.529Z,19.62
2023-04-30T15:21:13.575Z,19.57
2023-04-30T15:23:41.608Z,19.46
2023-04-30T15:26:09.747Z,19.28
2023-04-30T15:28:37.945Z,19.12
2023-04-30T15:31:06.702Z,19.00
2023-04-30T15:33:39.789Z,18.95
2023-04-30T15:36:08.542Z,18.96
2023-04-30T15:38:36.467Z,18.88
2023-04-30T15:41:04.320Z,18.73
2023-04-30T15:43:32.578Z,18.57
2023-04-30T15:46:00.880Z,18.42
2023-04-30T15:48:28.916Z,18.28
2023-04-30T15:50:57.009Z,18.12
2023-04-30T15:53:26.022Z,17.99
2023-04-30T15:55:53.991Z,17.89
2023-04-30T15:58:22.332Z,17.85
2023-04-30T16:00:50.146Z,17.80
2023-04-30T16:03:18.283Z,17.76
2023-04-30T16:05:46.184Z,17.73
2023-04-30T16:08:15.093Z,17.70
2023-04-30T16:10:43.456Z,17.67
2023-04-30T16:13:11.807Z,17.63
2023-04-30T16:15:39.770Z,17.59
2023-04-30T16:18:08.155Z,17.56
2023-04-30T16:20:37.108Z,17.50
2023-04-30T16:23:06.007Z,17.33
2023-04-30T16:25:33.894Z,17.21
2023-04-30T16:28:01.861Z,17.13
2023-04-30T16:30:29.905Z,17.10
2023-04-30T16:32:58.160Z,17.08
2023-04-30T16:35:38.539Z,17.00
2023-04-30T16:38:09.731Z,16.88
2023-04-30T16:40:37.696Z,16.82
2023-04-30T16:43:09.505Z,16.78
2023-04-30T16:45:37.600Z,16.75
2023-04-30T16:48:06.123Z,16.71
2023-04-30T16:50:36.655Z,16.64
2023-04-30T16:53:04.698Z,16.56
2023-04-30T16:55:33.361Z,16.48
2023-04-30T16:58:01.614Z,16.41
2023-04-30T17:00:29.976Z,16.35
2023-04-30T17:03:03.567Z,16.30
2023-04-30T17:05:32.009Z,16.24
2023-04-30T17:08:00.287Z,16.20
2023-04-30T17:10:30.160Z,16.18
2023-04-30T17:12:59.653Z,16.12
2023-04-30T17:15:27.824Z,16.02
2023-04-30T17:17:57.414Z,15.92
2023-04-30T17:20:25.520Z,15.79
2023-04-30T17:22:53.543Z,15.67
2023-04-30T17:25:21.676Z,15.58
2023-04-30T17:27:50.175Z,15.49
2023-04-30T17:30:20.080Z,15.40
2023-04-30T17:32:48.152Z,15.28
2023-04-30T17:35:16.396Z,15.18
2023-04-30T17:37:44.522Z,15.09
2023-04-30T17:40:12.752Z,15.02
2023-04-30T17:42:40.704Z,14.97
2023-04-30T17:45:09.428Z,14.90
2023-04-30T17:47:38.233Z,14.82
2023-04-30T17:50:08.652Z,14.73
2023-04-30T17:52:38.911Z,14.65
2023-04-30T17:55:10.432Z,14.60
2023-04-30T17:57:38.415Z,14.57
2023-04-30T18:00:07.571Z,14.56
2023-04-30T18:02:41.969Z,14.59
2023-04-30T18:05:11.735Z,14.62
2023-04-30T18:07:39.870Z,14.58
2023-04-30T18:10:08.716Z,14.50
2023-04-30T18:12:37.273Z,14.36
2023-04-30T18:15:08.556Z,14.39
2023-04-30T18:17:37.524Z,14.37
2023-04-30T18:20:08.090Z,14.35
2023-04-30T18:22:43.460Z,14.32
2023-04-30T18:25:13.628Z,14.28
2023-04-30T18:27:41.839Z,14.24
2023-04-30T18:30:11.775Z,14.18
2023-04-30T18:32:41.744Z,14.09
2023-04-30T18:35:10.618Z,14.07
2023-04-30T18:37:38.578Z,14.04
2023-04-30T18:40:07.547Z,14.02
2023-04-30T18:42:37.732Z,13.99
2023-04-30T18:45:06.863Z,13.95
2023-04-30T18:47:34.972Z,13.91
2023-04-30T18:50:13.272Z,13.88
2023-04-30T18:52:41.936Z,13.81
2023-04-30T18:55:11.861Z,13.73
2023-04-30T18:57:43.387Z,13.65
2023-04-30T19:00:15.244Z,13.58
2023-04-30T19:02:43.495Z,13.52
2023-04-30T19:05:11.545Z,13.48
2023-04-30T19:07:40.116Z,13.46
2023-04-30T19:10:08.397Z,13.42
2023-04-30T19:12:41.418Z,13.41
2023-04-30T19:15:11.736Z,13.37
2023-04-30T19:17:40.235Z,13.35
2023-04-30T19:20:09.135Z,13.33
2023-04-30T19:22:37.856Z,13.31
2023-04-30T19:25:06.273Z,13.28
2023-04-30T19:27:35.322Z,13.24
2023-04-30T19:30:06.269Z,13.19
2023-04-30T19:32:34.262Z,13.13
2023-04-30T19:35:02.365Z,13.07
2023-04-30T19:37:31.096Z,13.02
2023-04-30T19:39:59.137Z,12.96
2023-04-30T19:42:27.248Z,12.91
2023-04-30T19:44:55.151Z,12.85
2023-04-30T19:47:23.450Z,12.78
2023-04-30T19:49:51.496Z,12.72
2023-04-30T19:52:19.624Z,12.66
2023-04-30T19:54:50.235Z,12.60
2023-04-30T19:57:20.882Z,12.52
2023-04-30T19:59:49.470Z,12.49
2023-04-30T20:02:17.862Z,12.44
2023-04-30T20:04:46.296Z,12.38
2023-04-30T20:07:14.379Z,12.32
2023-04-30T20:09:42.253Z,12.24
2023-04-30T20:12:10.229Z,12.15
2023-04-30T20:14:38.045Z,12.08
2023-04-30T20:17:06.640Z,12.04
2023-04-30T20:19:34.710Z,12.02
2023-04-30T20:22:03.880Z,12.00
2023-04-30T20:24:32.292Z,11.98
2023-04-30T20:27:00.274Z,11.98
2023-04-30T20:29:29.481Z,11.97
2023-04-30T20:31:58.421Z,11.96
2023-04-30T20:34:26.365Z,11.95
2023-04-30T20:36:54.377Z,11.93
2023-04-30T20:39:22.523Z,11.91
2023-04-30T20:41:50.601Z,11.89
2023-04-30T20:44:18.420Z,11.88
2023-04-30T20:46:46.528Z,11.86
2023-04-30T20:49:14.754Z,11.83
2023-04-30T20:51:42.718Z,11.81
2023-04-30T20:54:11.020Z,11.78
2023-04-30T20:56:39.093Z,11.75
2023-04-30T20:59:07.097Z,11.69
2023-04-30T21:01:35.064Z,11.64
2023-04-30T21:04:03.012Z,11.60
2023-04-30T21:06:34.453Z,11.56
2023-04-30T21:09:02.454Z,11.52
2023-04-30T21:11:30.482Z,11.49
2023-04-30T21:13:58.389Z,11.44
2023-04-30T21:16:28.001Z,11.42
2023-04-30T21:18:56.091Z,11.39
2023-04-30T21:21:23.997Z,11.37
2023-04-30T21:23:51.935Z,11.34
2023-04-30T21:26:20.404Z,11.31
2023-04-30T21:28:48.436Z,11.29
2023-04-30T21:31:16.795Z,11.25
2023-04-30T21:33:46.128Z,11.23
2023-04-30T21:36:16.482Z,11.12
2023-04-30T21:38:44.627Z,11.14
2023-04-30T21:41:17.243Z,11.10
2023-04-30T21:43:45.093Z,11.06
2023-04-30T21:46:14.497Z,11.03
2023-04-30T21:48:42.696Z,11.01
2023-04-30T21:51:15.130Z,11.00
2023-04-30T21:53:44.520Z,10.99
2023-04-30T21:56:13.116Z,10.98
2023-04-30T21:58:41.111Z,10.95
2023-04-30T22:01:09.061Z,10.95
2023-04-30T22:03:37.251Z,10.92
2023-04-30T22:06:05.351Z,10.90
2023-04-30T22:08:33.454Z,10.86
2023-04-30T22:11:01.888Z,10.83
2023-04-30T22:13:30.024Z,10.82
2023-04-30T22:15:58.293Z,10.78
2023-04-30T22:18:26.505Z,10.74
2023-04-30T22:20:54.501Z,10.68
2023-04-30T22:23:22.638Z,10.63
2023-04-30T22:25:50.810Z,10.56
2023-04-30T22:28:20.417Z,10.47
2023-04-30T22:30:48.248Z,10.40
2023-04-30T22:33:16.271Z,10.35
2023-04-30T22:35:44.156Z,10.31
2023-04-30T22:38:13.065Z,10.28
2023-04-30T22:40:42.019Z,10.26
2023-04-30T22:43:10.237Z,10.23
2023-04-30T22:45:40.531Z,10.18
2023-04-30T22:48:10.543Z,10.12
2023-04-30T22:50:39.187Z,10.08
2023-04-30T22:53:07.938Z,10.06
2023-04-30T22:55:36.189Z,10.00
2023-04-30T22:58:04.381Z,10.04
2023-04-30T23:00:32.447Z,10.02
2023-04-30T23:03:00.497Z,10.01
2023-04-30T23:05:28.492Z,10.00
2023-04-30T23:07:56.660Z,9.98
2023-04-30T23:10:24.602Z,9.97
2023-04-30T23:12:55.562Z,9.96
2023-04-30T23:15:23.484Z,9.96
2023-04-30T23:17:51.697Z,9.94
2023-04-30T23:20:20.041Z,9.93
2023-04-30T23:22:47.906Z,9.92
2023-04-30T23:25:15.876Z,9.91
2023-04-30T23:27:45.311Z,9.90
2023-04-30T23:30:14.165Z,9.87
2023-04-30T23:32:42.143Z,9.83
2023-04-30T23:35:10.227Z,9.78
2023-04-30T23:37:38.215Z,9.75
2023-04-30T23:40:07.602Z,9.73
2023-04-30T23:42:35.865Z,9.72
2023-04-30T23:45:04.241Z,9.71
2023-04-30T23:47:36.206Z,9.69
2023-04-30T23:50:04.864Z,9.65
2023-04-30T23:52:33.222Z,9.61
2023-04-30T23:55:01.129Z,9.56
2023-04-30T23:57:29.091Z,9.51
2023-04-30T23:59:57.347Z,9.46
